Latest Weather Observations for Dalby

IDQ60801

Issued at 1:32 pm EST Wednesday 22 February 2017 (issued every 30 minutes, with the page automatically refreshed every 10 minutes)

About weather observations | Map of weather stations | Latest weather observations for QLD | Other Formats
Station Details ID: 041522 Name: DALBY AIRPORT Lat: -27.16 Lon: 151.26 Height: 343.9 m
Data from the previous 72 hours. | See also: Recent months at Dalby
Date/Time
EST
Temp
°C
App
Temp
°C
Dew
Point
°C
Rel
Hum
%
Delta-T
°C
Wind Press
QNH
hPa
Press
MSL
hPa
Rain since
9am
mm
Dir  Spd
km/h
Gust
km/h
Spd
kts
Gust
kts
22/01:00pm 27.9 25.4 13.4 40 8.7 E 19 28 10 15 1018.3 1016.3 0.0
22/12:30pm 28.1 25.4 12.8 38 9.1 ESE 19 32 10 17 1018.8 1016.8 0.0
22/12:00pm 27.3 24.6 13.6 43 8.2 E 20 32 11 17 1019.0 1017.0 0.0
22/11:30am 27.2 23.7 13.5 42 8.2 E 24 32 13 17 1019.3 1017.3 0.0
22/11:00am 27.1 23.7 14.8 47 7.5 E 26 33 14 18 1019.7 1017.7 0.0
22/10:30am 25.6 22.8 15.3 53 6.3 E 24 33 13 18 1020.2 1018.2 0.0
22/10:00am 25.4 22.6 16.3 57 5.6 E 26 35 14 19 1020.3 1018.3 0.0
22/09:30am 24.4 21.5 16.1 60 5.1 E 26 33 14 18 1020.3 1018.3 0.0
22/09:00am 23.9 20.5 15.9 61 4.9 E 28 35 15 19 1020.3 1018.3 0.0
22/08:30am 23.0 20.6 16.3 66 4.1 E 24 32 13 17 1020.3 1018.3 0.0
22/08:00am 22.6 20.1 16.2 67 3.9 E 24 35 13 19 1020.1 1018.1 0.0
22/07:30am 21.6 21.6 16.3 72 3.3 E 11 15 6 8 1020.0 1018.0 0.0
22/07:00am 20.8 21.6 16.4 76 2.7 E 7 11 4 6 1019.9 1017.9 0.0
22/06:30am 20.0 20.7 16.2 79 2.3 E 7 9 4 5 1019.8 1017.8 0.0
22/06:00am 19.7 19.6 16.0 79 2.2 E 11 13 6 7 1019.4 1017.4 0.0
22/05:30am 19.9 19.7 15.7 77 2.5 ESE 11 15 6 8 1019.0 1017.0 0.0
22/05:00am 19.8 19.3 15.9 78 2.4 ESE 13 15 7 8 1018.4 1016.4 0.0
22/04:30am 19.9 20.0 15.5 76 2.6 ESE 9 11 5 6 1018.5 1016.5 0.0
22/04:00am 19.9 19.6 15.5 76 2.6 ESE 11 13 6 7 1018.3 1016.3 0.0
22/03:30am 20.3 20.0 15.5 74 2.9 E 11 13 6 7 1018.1 1016.1 0.0
22/03:00am 20.2 20.0 15.6 75 2.8 E 11 13 6 7 1018.0 1016.0 0.0
22/02:30am 20.1 20.2 15.5 75 2.8 ESE 9 11 5 6 1018.3 1016.3 0.0
22/02:00am 20.5 19.4 15.3 72 3.1 E 15 20 8 11 1018.0 1016.0 0.0
22/01:30am 20.7 19.5 15.0 70 3.4 E 15 20 8 11 1018.1 1016.1 0.0
22/01:00am 21.0 20.4 14.6 67 3.8 E 11 17 6 9 1018.3 1016.3 0.0
22/12:30am 21.6 19.3 14.7 65 4.1 E 20 28 11 15 1018.0 1016.0 0.0
22/12:00am 21.8 18.5 14.9 65 4.1 E 26 35 14 19 1018.1 1016.1 0.0
 
Date/Time
EST
Temp
°C
App
Temp
°C
Dew
Point
°C
Rel
Hum
%
Delta-T
°C
Wind Press
QNH
hPa
Press
MSL
hPa
Rain since
9am
mm
Dir  Spd
km/h
Gust
km/h
Spd
kts
Gust
kts
21/11:30pm 22.3 18.2 14.9 63 4.4 E 30 39 16 21 1017.7 1015.7 0.0
21/11:00pm 22.6 18.8 15.7 65 4.2 E 30 43 16 23 1017.7 1015.7 0.0
21/10:30pm 23.0 18.8 16.3 66 4.1 E 33 44 18 24 1017.4 1015.4 0.0
21/10:00pm 23.4 20.1 16.9 67 4.0 E 30 41 16 22 1017.4 1015.4 0.0
21/09:30pm 23.8 20.7 16.6 64 4.5 E 28 37 15 20 1017.3 1015.3 0.0
21/09:00pm 24.3 20.0 16.0 60 5.1 ENE 33 44 18 24 1017.2 1015.2 0.0
21/08:30pm 24.9 20.9 16.3 59 5.3 E 32 43 17 23 1016.9 1014.9 0.0
21/08:00pm 25.7 21.7 16.3 56 5.8 E 32 41 17 22 1016.8 1014.8 0.0
21/07:30pm 26.5 22.5 16.1 52 6.5 E 32 43 17 23 1016.3 1014.3 0.0
21/07:21pm 26.9 23.0 15.6 50 7.0 ENE 30 43 16 23 1016.2 1014.2 0.0
21/07:00pm 27.9 24.9 12.7 39 9.0 E 20 24 11 13 1016.0 1014.0 0.0
21/06:30pm 28.7 25.6 12.2 36 9.7 ESE 20 28 11 15 1015.8 1013.8 0.0
21/06:00pm 29.8 27.3 12.3 34 10.4 ESE 17 20 9 11 1015.4 1013.4 0.0
21/05:30pm 30.4 27.8 11.9 32 11.0 ESE 17 22 9 12 1015.1 1013.0 0.0
21/05:00pm 30.8 28.4 10.2 28 11.9 SE 13 22 7 12 1014.9 1012.8 0.0
21/04:30pm 31.3 29.0 10.6 28 12.1 ESE 13 20 7 11 1014.7 1012.7 0.0
21/04:00pm 31.6 31.0 10.3 27 12.4 SE 4 11 2 6 1014.6 1012.6 0.0
21/03:30pm 31.4 29.4 10.2 27 12.3 SE 11 19 6 10 1014.9 1012.8 0.0
21/03:00pm 31.2 30.0 9.4 26 12.5 SSE 6 17 3 9 1015.1 1013.0 0.0
21/02:30pm 30.7 28.9 9.6 27 12.1 S 9 19 5 10 1015.3 1013.3 0.0
21/02:00pm 30.6 29.4 9.5 27 12.0 SE 6 15 3 8 1015.3 1013.3 0.0
21/01:30pm 29.9 28.4 10.5 30 11.2 SE 9 15 5 8 1015.7 1013.7 0.0
21/01:00pm 30.4 29.0 10.9 30 11.4 ESE 9 19 5 10 1016.0 1014.0 0.0
21/12:30pm 30.1 28.4 12.5 34 10.5 ESE 13 22 7 12 1016.2 1014.2 0.0
21/12:00pm 29.6 28.0 11.6 33 10.6 SE 11 17 6 9 1016.6 1014.6 0.0
21/11:30am 29.1 27.7 12.1 35 10.0 NNE 11 19 6 10 1017.0 1015.0 0.0
21/11:00am 28.9 27.3 11.5 34 10.2 NW 11 13 6 7 1017.3 1015.3 0.0
21/10:30am 27.9 26.9 13.4 40 8.7 E 11 17 6 9 1017.6 1015.6 0.0
21/10:00am 27.6 26.5 14.3 44 8.1 NE 13 20 7 11 1017.9 1015.8 0.0
21/09:30am 26.7 26.0 15.4 50 7.0 ENE 13 24 7 13 1018.2 1016.2 0.0
21/09:00am 25.6 24.9 17.3 60 5.2 ENE 17 24 9 13 1018.2 1016.2 0.0
21/08:30am 24.4 23.4 17.9 67 4.1 E 20 26 11 14 1018.2 1016.2 0.0
21/08:00am 23.5 22.1 17.9 71 3.5 ESE 22 28 12 15 1017.9 1015.8 0.0
21/07:30am 22.2 21.3 17.8 76 2.8 ESE 19 24 10 13 1017.6 1015.6 0.0
21/07:00am 20.9 20.0 16.9 78 2.5 ESE 17 20 9 11 1017.5 1015.5 0.0
21/06:30am 19.6 18.9 16.3 81 2.0 ESE 15 17 8 9 1017.0 1015.0 0.0
21/06:00am 17.9 17.3 15.7 87 1.3 ESE 13 17 7 9 1016.8 1014.8 0.0
21/05:30am 17.2 17.1 15.0 87 1.3 SE 9 11 5 6 1016.5 1014.5 0.0
21/05:00am 17.1 16.5 14.7 86 1.4 ESE 11 13 6 7 1015.9 1013.9 0.0
21/04:30am 16.9 16.5 14.0 83 1.7 ESE 9 11 5 6 1015.5 1013.5 0.0
21/04:00am 17.3 16.1 14.0 81 1.9 ESE 13 15 7 8 1015.2 1013.1 0.0
21/03:30am 17.5 15.4 13.6 78 2.2 ESE 17 19 9 10 1015.0 1012.9 0.0
21/03:00am 17.6 15.9 13.5 77 2.4 ESE 15 17 8 9 1014.9 1012.8 0.0
21/02:30am 17.4 16.2 13.9 80 2.0 SE 13 15 7 8 1014.7 1012.7 0.0
21/02:00am 17.2 15.5 13.7 80 2.0 SE 15 17 8 9 1014.7 1012.7 0.0
21/01:30am 16.9 16.0 13.6 81 1.9 ESE 11 13 6 7 1014.9 1012.8 0.0
21/01:00am 17.3 17.1 13.6 79 2.1 ESE 7 11 4 6 1015.1 1013.0 0.0
21/12:30am 17.7 17.6 13.8 78 2.3 ESE 7 9 4 5 1015.5 1013.5 0.0
21/12:00am 17.6 16.7 13.7 78 2.2 ESE 11 15 6 8 1015.6 1013.6 0.0
 
Date/Time
EST
Temp
°C
App
Temp
°C
Dew
Point
°C
Rel
Hum
%
Delta-T
°C
Wind Press
QNH
hPa
Press
MSL
hPa
Rain since
9am
mm
Dir  Spd
km/h
Gust
km/h
Spd
kts
Gust
kts
20/11:30pm 18.1 17.6 12.8 71 3.0 SE 7 9 4 5 1015.5 1013.5 0.0
20/11:00pm 20.5 18.9 11.4 56 5.1 S 11 13 6 7 1015.3 1013.3 0.0
20/10:30pm 20.5 19.4 12.0 58 4.8 SSW 9 11 5 6 1015.3 1013.3 0.0
20/10:00pm 21.1 19.3 10.9 52 5.7 SSW 11 13 6 7 1015.2 1013.1 0.0
20/09:30pm 21.7 19.5 10.8 50 6.1 WSW 13 15 7 8 1015.2 1013.1 0.0
20/09:00pm 22.4 19.6 9.9 45 6.9 WSW 15 17 8 9 1015.0 1012.9 0.0
20/08:30pm 23.2 20.3 9.6 42 7.5 WSW 15 19 8 10 1014.7 1012.7 0.0
20/08:00pm 23.7 21.4 10.4 43 7.5 WSW 13 17 7 9 1014.4 1012.4 0.0
20/07:30pm 23.3 22.1 11.7 48 6.6 WSW 9 11 5 6 1014.0 1012.0 0.0
20/07:00pm 24.4 23.1 11.4 44 7.4 WSW 9 11 5 6 1013.3 1011.3 0.0
20/06:30pm 25.8 24.1 10.0 37 8.9 WSW 9 13 5 7 1013.0 1011.0 0.0
20/06:00pm 26.9 25.7 4.6 24 11.5 CALM 0 4 0 2 1012.6 1010.5 0.0
20/05:30pm 27.4 25.1 5.6 25 11.5 WSW 7 11 4 6 1012.2 1010.1 0.0
20/05:00pm 27.8 25.7 6.0 25 11.6 SW 6 13 3 7 1011.8 1009.7 0.0
20/04:30pm 27.8 24.1 2.1 19 12.7 SW 11 15 6 8 1011.3 1009.3 0.0
20/04:00pm 28.8 24.6 3.6 20 12.9 WSW 15 24 8 13 1011.4 1009.4 0.0
20/03:30pm 27.9 24.0 3.6 21 12.4 S 13 24 7 13 1011.2 1009.2 0.0
20/03:00pm 28.3 24.2 6.4 25 11.7 WSW 17 24 9 13 1011.3 1009.3 0.0
20/02:30pm 28.4 25.1 6.5 25 11.8 WSW 13 20 7 11 1011.5 1009.5 0.0
20/02:00pm 28.1 25.7 9.9 32 10.3 W 13 20 7 11 1011.6 1009.6 0.0
20/01:30pm 27.7 25.5 9.5 32 10.2 WSW 11 20 6 11 1012.1 1010.0 0.0
20/01:00pm 26.5 23.5 7.5 30 10.3 WSW 13 22 7 12 1012.4 1010.3 0.0
20/12:30pm 27.0 24.6 10.2 35 9.5 SSW 13 24 7 13 1012.6 1010.5 0.0
20/12:00pm 26.0 21.6 7.6 31 9.9 S 20 30 11 16 1013.1 1011.1 0.0
20/11:30am 26.2 23.0 10.0 36 9.1 SSW 17 26 9 14 1013.3 1011.3 0.0
20/11:00am 25.5 22.3 10.1 38 8.7 S 17 28 9 15 1013.5 1011.5 0.0
20/10:30am 24.1 21.3 12.7 49 6.7 SSE 19 28 10 15 1013.8 1011.8 0.0
20/10:00am 23.5 21.9 15.0 59 5.1 SSE 17 24 9 13 1013.8 1011.8 0.0
20/09:30am 22.5 20.4 13.6 57 5.2 SSE 17 24 9 13 1014.0 1012.0 0.0
20/09:00am 22.0 21.6 16.3 70 3.5 SSE 13 19 7 10 1014.2 1012.2 9.6
20/08:30am 20.7 20.0 15.5 72 3.1 SSE 13 17 7 9 1014.1 1012.1 9.6
20/08:00am 19.7 19.2 15.8 78 2.4 S 13 17 7 9 1014.0 1012.0 9.6
20/07:30am 19.2 17.6 16.1 82 1.9 SSW 19 22 10 12 1013.8 1011.8 9.6
20/07:00am 18.7 17.0 16.3 86 1.5 SW 20 26 11 14 1013.3 1011.3 9.6
20/06:30am 18.6 17.7 16.8 89 1.1 SW 17 22 9 12 1012.6 1010.5 9.6
20/06:00am 18.7 18.6 16.9 89 1.1 SW 13 17 7 9 1012.0 1009.9 9.6
20/05:30am 19.0 18.5 17.0 88 1.2 WSW 15 20 8 11 1011.3 1009.3 9.6
20/05:00am 19.2 18.5 17.3 89 1.2 WSW 17 20 9 11 1011.0 1009.0 9.6
20/04:30am 19.4 19.2 17.7 90 1.1 W 15 20 8 11 1010.9 1008.9 9.6
20/04:00am 19.7 19.7 18.0 90 1.1 WSW 15 17 8 9 1010.6 1008.6 9.6
20/03:30am 19.8 20.2 18.1 90 1.1 W 13 17 7 9 1010.3 1008.3 9.6
20/03:00am 20.0 20.5 18.3 90 1.1 W 13 20 7 11 1010.1 1008.1 9.6
20/02:30am 20.1 21.4 18.4 90 1.1 W 9 11 5 6 1009.8 1007.7 9.6
20/02:00am 20.0 20.9 18.3 90 1.1 WSW 11 13 6 7 1009.9 1007.8 9.6
20/01:30am 20.1 20.2 18.4 90 1.1 WSW 15 19 8 10 1010.3 1008.3 9.6
20/01:00am 20.1 20.6 18.4 90 1.1 SW 13 15 7 8 1010.4 1008.4 9.6
20/12:30am 20.2 21.4 18.3 89 1.2 N 9 13 5 7 1010.4 1008.4 9.6
20/12:00am 19.9 19.6 18.2 90 1.1 ENE 17 20 9 11 1010.1 1008.1 9.4
 
Date/Time
EST
Temp
°C
App
Temp
°C
Dew
Point
°C
Rel
Hum
%
Delta-T
°C
Wind Press
QNH
hPa
Press
MSL
hPa
Rain since
9am
mm
Dir  Spd
km/h
Gust
km/h
Spd
kts
Gust
kts
19/11:30pm 20.0 20.1 18.3 90 1.1 ENE 15 20 8 11 1010.5 1008.5 9.4
19/11:00pm 20.1 23.1 18.4 90 1.1 CALM 0 0 0 0 1011.3 1009.3 9.4
19/10:30pm 20.1 21.3 18.2 89 1.2 ENE 9 15 5 8 1011.6 1009.6 9.4
19/10:00pm 20.0 20.8 18.1 89 1.2 ENE 11 15 6 8 1011.8 1009.7 9.2
19/09:30pm 20.0 21.7 18.0 88 1.3 SE 6 9 3 5 1011.6 1009.6 9.2
19/09:00pm 19.8 20.1 17.9 89 1.2 SE 13 17 7 9 1011.1 1009.1 9.2
19/08:30pm 19.7 18.8 17.7 88 1.2 SW 19 24 10 13 1011.3 1009.3 7.8
19/08:00pm 21.8 18.7 18.4 81 2.2 WSW 32 43 17 23 1011.0 1009.0 0.2
19/07:57pm 22.0 19.7 18.4 80 2.3 WSW 28 43 15 23 1010.7 1008.7 0.2
19/07:30pm 23.2 25.7 20.2 83 2.0 NW 7 11 4 6 1009.8 1007.7 0.2
19/07:00pm 23.5 25.5 20.0 81 2.3 NW 9 11 5 6 1009.2 1007.1 0.2
19/06:30pm 23.7 26.1 20.0 80 2.4 WNW 7 11 4 6 1008.8 1006.7 0.2
19/06:00pm 23.6 25.9 19.9 80 2.4 NE 7 9 4 5 1008.0 1006.0 0.2
19/05:30pm 23.8 24.6 19.9 79 2.5 NE 15 17 8 9 1007.3 1005.2 0.2
19/05:00pm 24.4 25.5 19.7 75 3.1 NNE 13 17 7 9 1007.5 1005.5 0.2
19/04:30pm 24.8 26.2 19.6 73 3.4 NE 11 13 6 7 1007.2 1005.1 0.2
19/04:00pm 25.0 24.2 18.4 66 4.2 NW 20 26 11 14 1007.7 1005.7 0.2
19/03:30pm 25.2 24.3 18.2 65 4.5 NW 20 32 11 17 1008.0 1006.0 0.2
19/03:00pm 26.6 26.1 19.2 64 4.8 W 20 26 11 14 1008.0 1006.0 0.0
19/02:30pm 26.8 26.9 19.2 63 5.0 WNW 17 26 9 14 1008.2 1006.2 0.0
19/02:00pm 26.8 26.6 19.7 65 4.7 NW 20 28 11 15 1008.5 1006.5 0.0

Other Formats:

Comma delimited format used in spreadsheet applications
http://www.bom.gov.au/fwo/IDQ60801/IDQ60801.94542.axf

JavaScript Object Notation format (JSON) in row-major order
http://www.bom.gov.au/fwo/IDQ60801/IDQ60801.94542.json